Time;durP1;ratioP1;P1;durP2;ratioP2;P2;SDS_P1;SDS_P2;PMS_P1;PMS_P2;Temp;Humidity;BMP_temperature;BMP_pressure;BME280_temperature;BME280_humidity;BME280_pressure;Samples;Min_cycle;Max_cycle;Signal;HPM_P1;HPM_P2
2021/01/21 00:02:06;;;;;;;4.80;2.47;;;7.50;57.30;;;;;;4976774;28;20165;-77
2021/01/21 00:04:32;;;;;;;21.50;2.92;;;7.40;58.10;;;;;;4974977;28;20047;-77
2021/01/21 00:06:57;;;;;;;6.85;2.90;;;7.30;58.50;;;;;;4975401;28;20037;-77
2021/01/21 00:09:23;;;;;;;8.65;3.53;;;7.30;58.40;;;;;;4974924;28;20045;-77
2021/01/21 00:11:48;;;;;;;7.93;3.15;;;7.40;58.30;;;;;;4974101;28;20030;-76
2021/01/21 00:14:14;;;;;;;7.70;3.00;;;7.40;58.10;;;;;;4972535;28;20683;-77
2021/01/21 00:16:39;;;;;;;6.13;2.35;;;7.40;58.30;;;;;;4982285;28;20054;-76
2021/01/21 00:19:05;;;;;;;7.00;3.10;;;7.40;58.50;;;;;;4971290;28;20042;-77
2021/01/21 00:21:30;;;;;;;16.10;3.42;;;7.40;58.10;;;;;;4972247;28;20034;-76
2021/01/21 00:23:58;;;;;;;10.75;4.70;;;7.40;58.60;;;;;;4971023;28;20070;-76
2021/01/21 00:26:24;;;;;;;16.83;5.30;;;7.30;59.10;;;;;;4976331;28;20053;-77
2021/01/21 00:28:49;;;;;;;12.38;3.50;;;7.30;59.50;;;;;;4975099;28;20035;-76
2021/01/21 00:31:15;;;;;;;9.20;3.45;;;7.20;60.10;;;;;;4978654;28;20039;-76
2021/01/21 00:33:41;;;;;;;9.18;3.30;;;7.10;60.30;;;;;;4966623;28;20172;-77
2021/01/21 00:36:07;;;;;;;6.88;3.15;;;7.00;60.60;;;;;;4971402;28;20030;-78
2021/01/21 00:38:32;;;;;;;5.80;2.53;;;7.00;60.50;;;;;;4967483;28;20043;-77
2021/01/21 00:40:58;;;;;;;7.45;3.40;;;7.00;60.90;;;;;;4966462;28;20109;-77
2021/01/21 00:43:23;;;;;;;6.75;3.17;;;6.90;61.20;;;;;;4968581;28;20542;-78
2021/01/21 00:45:51;;;;;;;8.73;3.85;;;6.90;62.10;;;;;;4978650;28;20122;-77
2021/01/21 00:48:19;;;;;;;11.15;3.75;;;6.80;62.40;;;;;;4972389;28;20035;-77
2021/01/21 00:50:45;;;;;;;13.82;4.97;;;6.70;62.50;;;;;;4973397;28;20027;-77
2021/01/21 00:53:10;;;;;;;10.70;3.80;;;6.70;62.20;;;;;;4968646;28;20654;-77
2021/01/21 00:55:36;;;;;;;7.47;3.35;;;6.60;62.70;;;;;;4967944;28;20067;-77
2021/01/21 00:58:02;;;;;;;9.23;3.20;;;6.60;63.60;;;;;;4972728;28;20038;-78
2021/01/21 01:00:27;;;;;;;12.52;3.88;;;6.60;63.90;;;;;;4983561;28;20042;-77
2021/01/21 01:02:53;;;;;;;10.93;4.10;;;6.60;64.10;;;;;;4981510;28;20117;-77
2021/01/21 01:05:18;;;;;;;9.20;2.72;;;6.70;63.00;;;;;;4966913;28;21033;-77
2021/01/21 01:07:44;;;;;;;6.53;2.92;;;6.70;62.30;;;;;;4969420;28;20034;-77
2021/01/21 01:10:10;;;;;;;13.30;2.92;;;6.70;63.10;;;;;;4970553;28;20106;-77
2021/01/21 01:12:36;;;;;;;8.43;4.03;;;6.60;64.30;;;;;;4968002;28;20034;-77
2021/01/21 01:15:07;;;;;;;13.30;5.53;;;6.70;63.50;;;;;;4966905;28;20050;-77
2021/01/21 01:17:34;;;;;;;8.65;3.83;;;6.70;62.80;;;;;;4982768;28;20066;-77
2021/01/21 01:19:59;;;;;;;12.95;3.47;;;6.70;62.00;;;;;;4967756;28;20104;-77
2021/01/21 01:22:25;;;;;;;8.20;2.75;;;6.80;61.90;;;;;;4968920;28;20042;-77
2021/01/21 01:24:50;;;;;;;8.95;3.30;;;6.90;62.20;;;;;;4965173;28;20039;-77
2021/01/21 01:27:16;;;;;;;7.13;2.13;;;6.80;62.00;;;;;;4966350;28;20035;-77
2021/01/21 01:29:44;;;;;;;3.95;2.40;;;6.80;61.90;;;;;;4964141;28;20586;-76
2021/01/21 01:32:10;;;;;;;10.07;2.42;;;6.90;61.60;;;;;;4968851;28;20041;-77
2021/01/21 01:34:35;;;;;;;10.82;2.78;;;6.90;62.60;;;;;;4966390;28;20036;-77
2021/01/21 01:37:01;;;;;;;12.73;2.08;;;6.90;62.50;;;;;;4974883;28;20061;-77
2021/01/21 01:39:26;;;;;;;6.80;1.70;;;6.90;62.20;;;;;;4967593;28;21155;-77
2021/01/21 01:41:52;;;;;;;4.43;2.17;;;7.10;60.00;;;;;;4982238;28;20043;-77
2021/01/21 01:44:17;;;;;;;4.70;2.33;;;7.10;59.90;;;;;;4966536;28;20474;-77
2021/01/21 01:46:43;;;;;;;4.80;2.08;;;7.20;59.50;;;;;;4967758;28;20599;-76
2021/01/21 01:49:09;;;;;;;5.97;2.50;;;7.30;56.20;;;;;;4969742;28;20117;-77
2021/01/21 01:51:35;;;;;;;4.10;2.28;;;7.40;57.70;;;;;;4972411;28;20066;-77
2021/01/21 01:54:02;;;;;;;5.30;1.98;;;7.30;57.60;;;;;;4967595;28;20038;-77
2021/01/21 01:56:28;;;;;;;3.90;1.77;;;7.50;56.80;;;;;;4968860;28;20046;-76
2021/01/21 01:58:55;;;;;;;4.22;1.65;;;7.60;53.60;;;;;;4969882;28;20049;-77
2021/01/21 02:01:22;;;;;;;4.18;1.65;;;7.70;54.60;;;;;;4970049;28;20226;-77
2021/01/21 02:03:49;;;;;;;2.85;1.35;;;7.60;55.60;;;;;;4974254;28;20034;-77
2021/01/21 02:06:14;;;;;;;7.82;1.75;;;7.70;54.80;;;;;;4970054;28;20039;-77
2021/01/21 02:08:40;;;;;;;6.20;1.42;;;7.90;53.00;;;;;;4973264;28;20822;-77
2021/01/21 02:11:33;;;;;;;5.30;1.20;;;7.90;53.80;;;;;;4974459;28;20034;-77
2021/01/21 02:14:03;;;;;;;6.50;1.52;;;8.00;52.00;;;;;;4944539;28;20100;-76
2021/01/21 02:17:01;;;;;;;3.88;1.58;;;8.20;51.20;;;;;;4976848;28;20031;-77
2021/01/21 02:19:43;;;;;;;3.65;1.63;;;8.30;49.90;;;;;;4973214;28;20041;-77
2021/01/21 02:22:46;;;;;;;8.63;1.55;;;8.20;50.20;;;;;;4980983;28;20030;-77
2021/01/21 02:25:21;;;;;;;4.97;1.55;;;8.30;49.80;;;;;;4968427;28;20117;-77
2021/01/21 02:27:46;;;;;;;3.63;1.15;;;8.20;51.20;;;;;;4967959;28;20399;-76
2021/01/21 02:30:43;;;;;;;5.63;1.75;;;8.20;50.30;;;;;;4970624;28;20265;-77
2021/01/21 02:33:17;;;;;;;2.65;1.27;;;8.30;49.80;;;;;;4970924;28;20647;-77
2021/01/21 02:35:47;;;;;;;4.05;1.52;;;8.20;50.50;;;;;;4969935;28;20046;-76
2021/01/21 02:38:13;;;;;;;3.92;1.35;;;8.30;49.30;;;;;;4980436;28;20541;-77
2021/01/21 02:40:41;;;;;;;2.42;1.27;;;8.30;50.50;;;;;;4969462;28;20057;-76
2021/01/21 02:43:10;;;;;;;5.15;1.40;;;8.20;50.90;;;;;;4971877;28;20034;-77
2021/01/21 02:45:36;;;;;;;2.53;1.30;;;8.10;50.20;;;;;;4972734;28;20073;-76
2021/01/21 02:48:03;;;;;;;2.28;1.00;;;8.10;51.60;;;;;;4975206;28;20042;-77
2021/01/21 02:50:28;;;;;;;5.10;1.20;;;8.10;51.40;;;;;;4970813;28;20046;-77
2021/01/21 02:52:59;;;;;;;4.57;1.35;;;8.10;52.40;;;;;;4970086;28;20035;-76
2021/01/21 02:55:41;;;;;;;2.15;1.08;;;8.10;51.00;;;;;;4973434;28;20046;-77
2021/01/21 02:58:18;;;;;;;4.93;1.38;;;8.20;50.90;;;;;;4952386;28;20522;-77
2021/01/21 03:00:46;;;;;;;3.35;1.20;;;8.30;50.10;;;;;;4953433;28;20072;-77
2021/01/21 03:03:14;;;;;;;3.72;1.55;;;8.40;48.30;;;;;;4958416;28;20107;-77
2021/01/21 03:05:42;;;;;;;5.53;1.55;;;8.50;48.50;;;;;;4953816;28;20407;-76
2021/01/21 03:08:08;;;;;;;4.78;1.50;;;8.60;46.90;;;;;;4957852;28;20110;-76
2021/01/21 03:10:33;;;;;;;7.63;1.40;;;8.60;46.80;;;;;;4954158;28;20051;-76
2021/01/21 03:12:59;;;;;;;3.00;1.23;;;8.60;46.70;;;;;;4951698;28;20396;-76
2021/01/21 03:15:25;;;;;;;4.50;1.38;;;8.50;47.70;;;;;;4952183;28;20455;-78
2021/01/21 03:17:52;;;;;;;2.95;0.60;;;8.50;48.10;;;;;;4953061;28;20039;-77
2021/01/21 03:20:18;;;;;;;1.83;1.02;;;8.60;47.20;;;;;;4954700;28;20453;-78
2021/01/21 03:22:43;;;;;;;3.83;0.70;;;8.60;47.30;;;;;;4952926;28;20139;-77
2021/01/21 03:25:10;;;;;;;5.22;1.10;;;8.80;44.10;;;;;;4950872;28;20543;-78
2021/01/21 03:27:35;;;;;;;2.83;0.93;;;8.90;44.10;;;;;;4967520;28;20031;-77
2021/01/21 03:30:02;;;;;;;3.25;0.98;;;9.10;42.10;;;;;;4951356;28;20038;-77
2021/01/21 03:32:28;;;;;;;2.60;0.65;;;9.20;41.60;;;;;;4951635;28;20035;-78
2021/01/21 03:34:53;;;;;;;2.05;0.95;;;9.20;41.50;;;;;;4952444;28;20042;-77
2021/01/21 03:37:19;;;;;;;4.22;1.05;;;9.30;40.30;;;;;;4950680;28;20512;-78
2021/01/21 03:39:44;;;;;;;2.28;1.00;;;9.30;40.50;;;;;;4952829;28;20047;-77
2021/01/21 03:42:10;;;;;;;2.80;1.20;;;9.20;40.90;;;;;;4952208;28;20047;-78
2021/01/21 03:44:35;;;;;;;3.38;0.90;;;9.40;39.90;;;;;;4968209;28;20027;-78
2021/01/21 03:47:01;;;;;;;2.30;0.95;;;9.30;40.20;;;;;;4951958;28;20031;-77
2021/01/21 03:49:26;;;;;;;2.42;1.00;;;9.30;40.30;;;;;;4952595;28;20067;-77
2021/01/21 03:51:52;;;;;;;2.78;1.02;;;9.30;39.90;;;;;;4968789;28;20470;-77
2021/01/21 03:54:17;;;;;;;4.05;1.00;;;9.40;40.00;;;;;;4954597;28;20031;-77
2021/01/21 03:56:43;;;;;;;1.48;0.90;;;9.30;39.80;;;;;;4954182;28;20047;-77
2021/01/21 03:59:08;;;;;;;3.92;1.17;;;9.40;39.40;;;;;;4955139;28;20045;-77
2021/01/21 04:01:34;;;;;;;4.28;1.27;;;9.40;39.80;;;;;;4952943;28;20046;-77
2021/01/21 04:03:59;;;;;;;2.63;1.27;;;9.30;40.20;;;;;;4954104;28;20067;-77
2021/01/21 04:06:25;;;;;;;2.00;0.77;;;9.20;40.60;;;;;;4956004;28;20035;-78
2021/01/21 04:08:50;;;;;;;9.90;1.30;;;9.20;41.50;;;;;;4954176;28;20043;-77
2021/01/21 04:11:16;;;;;;;1.60;0.88;;;9.00;42.40;;;;;;4953570;28;20039;-78
2021/01/21 04:13:42;;;;;;;2.80;1.15;;;9.00;41.80;;;;;;4953038;28;20063;-78
2021/01/21 04:16:07;;;;;;;2.00;1.13;;;9.10;41.50;;;;;;4968627;28;20507;-78
2021/01/21 04:18:33;;;;;;;1.38;0.85;;;9.00;41.90;;;;;;4971495;28;20567;-79
2021/01/21 04:20:58;;;;;;;1.80;0.80;;;9.00;41.70;;;;;;4958465;28;20051;-77
2021/01/21 04:23:24;;;;;;;6.25;1.15;;;8.90;42.50;;;;;;4959034;28;20043;-77
2021/01/21 04:25:50;;;;;;;2.00;0.98;;;8.90;42.40;;;;;;4953708;28;20041;-77
2021/01/21 04:28:16;;;;;;;3.63;1.05;;;8.90;42.70;;;;;;4955671;28;20113;-77
2021/01/21 04:30:41;;;;;;;3.15;0.90;;;9.00;41.80;;;;;;4956351;28;20050;-77
2021/01/21 04:33:07;;;;;;;1.88;0.70;;;9.00;41.80;;;;;;4955172;28;20401;-77
2021/01/21 04:35:32;;;;;;;2.83;1.17;;;9.10;41.10;;;;;;4969738;28;20031;-77
2021/01/21 04:37:58;;;;;;;4.53;0.85;;;9.00;42.10;;;;;;4955458;28;20045;-77
2021/01/21 04:40:26;;;;;;;3.33;1.20;;;9.10;41.50;;;;;;4954819;28;20046;-77
2021/01/21 04:42:52;;;;;;;2.13;0.90;;;9.20;41.20;;;;;;4971993;28;20031;-77
2021/01/21 04:45:18;;;;;;;6.28;1.10;;;9.10;41.40;;;;;;4955532;28;20611;-77
2021/01/21 04:47:44;;;;;;;1.23;0.60;;;9.40;40.40;;;;;;4951423;28;20127;-76
2021/01/21 04:50:11;;;;;;;1.27;0.70;;;9.20;41.10;;;;;;4956390;28;20473;-77
2021/01/21 04:52:39;;;;;;;1.95;0.80;;;9.10;41.60;;;;;;4955534;28;20039;-77
2021/01/21 04:55:27;;;;;;;5.70;0.93;;;9.40;40.10;;;;;;4967323;28;20035;-77
2021/01/21 04:58:02;;;;;;;3.97;0.70;;;9.50;39.70;;;;;;4975203;28;20125;-77
2021/01/21 05:00:28;;;;;;;1.60;0.98;;;9.40;40.20;;;;;;4988994;28;20031;-78
2021/01/21 05:02:55;;;;;;;1.67;0.65;;;9.40;40.30;;;;;;4974670;28;20030;-77
2021/01/21 05:05:22;;;;;;;2.90;1.20;;;9.30;40.90;;;;;;4971434;28;20529;-77
2021/01/21 05:07:48;;;;;;;2.65;1.05;;;9.60;39.50;;;;;;4972512;28;20037;-76
2021/01/21 05:10:16;;;;;;;4.35;0.80;;;9.40;39.90;;;;;;4971321;28;20546;-78
2021/01/21 05:12:41;;;;;;;2.33;0.90;;;9.50;39.80;;;;;;4987777;28;20049;-77
2021/01/21 05:15:07;;;;;;;1.98;0.80;;;9.70;39.40;;;;;;4972567;28;20408;-78
2021/01/21 05:17:33;;;;;;;1.67;0.88;;;9.80;38.50;;;;;;4974808;28;20122;-79
2021/01/21 05:20:00;;;;;;;5.47;1.02;;;9.90;37.80;;;;;;4971727;28;20038;-79
2021/01/21 05:22:25;;;;;;;0.73;0.40;;;10.10;36.10;;;;;;4985945;28;20614;-79
2021/01/21 05:24:51;;;;;;;5.13;0.77;;;10.10;36.00;;;;;;4974746;28;20041;-77
2021/01/21 05:27:21;;;;;;;1.33;0.70;;;10.10;35.80;;;;;;4970144;28;20739;-78
2021/01/21 05:29:48;;;;;;;5.88;1.00;;;10.00;36.10;;;;;;4969232;28;20034;-77
2021/01/21 05:32:15;;;;;;;0.88;0.63;;;10.00;36.20;;;;;;4969751;28;20035;-76
2021/01/21 05:34:44;;;;;;;1.55;0.75;;;9.90;37.60;;;;;;4969439;28;20585;-76
2021/01/21 05:37:14;;;;;;;1.23;0.70;;;10.00;36.00;;;;;;4972044;28;20035;-77
2021/01/21 05:39:41;;;;;;;1.38;0.80;;;10.10;35.60;;;;;;4976856;28;20118;-76
2021/01/21 05:42:08;;;;;;;5.70;0.80;;;10.10;36.10;;;;;;4986214;28;20077;-77
2021/01/21 05:44:34;;;;;;;1.20;0.60;;;10.20;35.40;;;;;;4973191;28;20055;-77
2021/01/21 05:47:04;;;;;;;1.48;0.70;;;10.30;35.10;;;;;;4975308;28;20035;-77
2021/01/21 05:49:30;;;;;;;1.98;0.65;;;10.30;35.00;;;;;;4971915;28;20050;-77
2021/01/21 05:51:57;;;;;;;3.65;0.82;;;10.20;35.10;;;;;;4988206;28;20123;-77
2021/01/21 05:54:24;;;;;;;2.00;0.75;;;10.20;35.30;;;;;;4968095;28;20039;-77
2021/01/21 05:56:51;;;;;;;2.47;0.85;;;10.20;36.10;;;;;;4986335;28;20097;-77
2021/01/21 05:59:18;;;;;;;0.93;0.60;;;10.30;34.50;;;;;;4965047;28;20540;-77
2021/01/21 06:01:44;;;;;;;2.70;0.70;;;10.40;34.30;;;;;;4964370;28;20126;-76
2021/01/21 06:04:11;;;;;;;3.67;0.90;;;10.30;34.50;;;;;;4967091;28;20122;-77
2021/01/21 06:06:39;;;;;;;4.70;0.80;;;10.20;35.00;;;;;;4971069;28;20034;-77
2021/01/21 06:09:15;;;;;;;1.60;0.70;;;10.20;35.40;;;;;;4967302;28;20034;-77
2021/01/21 06:11:42;;;;;;;2.25;0.65;;;10.10;35.70;;;;;;4967929;28;20050;-76
2021/01/21 06:14:09;;;;;;;5.05;0.77;;;10.20;35.30;;;;;;4971574;28;20408;-77
2021/01/21 06:16:36;;;;;;;5.97;1.08;;;10.20;35.10;;;;;;4974674;28;20038;-77
2021/01/21 06:19:02;;;;;;;2.17;1.00;;;10.10;35.20;;;;;;4969606;28;20046;-77
2021/01/21 06:21:32;;;;;;;3.58;1.48;;;10.10;36.10;;;;;;4969624;28;20038;-78
2021/01/21 06:24:05;;;;;;;3.55;1.60;;;10.00;35.90;;;;;;4969780;28;20066;-77
2021/01/21 06:26:47;;;;;;;3.50;1.00;;;10.00;36.40;;;;;;4968807;28;20711;-75
2021/01/21 06:29:18;;;;;;;4.85;0.73;;;10.10;35.60;;;;;;4979861;28;20568;-76
2021/01/21 06:31:49;;;;;;;0.88;0.63;;;10.20;34.60;;;;;;4976468;28;20471;-76
2021/01/21 06:34:27;;;;;;;2.55;0.75;;;10.10;34.70;;;;;;4975110;28;20049;-77
2021/01/21 06:36:58;;;;;;;4.05;1.17;;;10.10;34.90;;;;;;4971815;28;20043;-77
2021/01/21 06:39:53;;;;;;;4.13;1.05;;;10.10;35.10;;;;;;4973546;28;20042;-77
2021/01/21 06:42:27;;;;;;;2.90;1.05;;;10.00;34.90;;;;;;4975188;28;20050;-77
2021/01/21 06:44:54;;;;;;;2.35;0.80;;;10.00;35.90;;;;;;4970191;28;20054;-76
2021/01/21 06:47:21;;;;;;;3.10;0.75;;;10.10;35.70;;;;;;4972862;28;20039;-77
2021/01/21 06:49:49;;;;;;;3.00;0.90;;;10.10;35.40;;;;;;4972419;28;20066;-76
2021/01/21 06:52:15;;;;;;;6.07;2.47;;;10.10;35.80;;;;;;4974155;28;20043;-76
2021/01/21 06:54:41;;;;;;;2.60;0.88;;;10.10;35.20;;;;;;4987618;28;20105;-76
2021/01/21 06:57:35;;;;;;;2.85;0.80;;;10.20;35.40;;;;;;4972564;28;20038;-76
2021/01/21 07:00:01;;;;;;;5.07;1.00;;;10.30;36.20;;;;;;4972807;28;20046;-77
2021/01/21 07:02:49;;;;;;;3.28;0.75;;;10.40;35.80;;;;;;4972608;28;20031;-76
2021/01/21 07:05:23;;;;;;;2.65;1.20;;;10.40;36.60;;;;;;4973650;28;20154;-75
2021/01/21 07:07:58;;;;;;;1.55;0.70;;;10.40;37.40;;;;;;4971681;28;20034;-76
2021/01/21 07:10:47;;;;;;;1.90;0.80;;;10.50;37.90;;;;;;4971891;28;20932;-76
2021/01/21 07:13:18;;;;;;;3.22;0.90;;;10.60;38.70;;;;;;4971490;28;20038;-77
2021/01/21 07:16:00;;;;;;;4.05;1.13;;;10.50;40.40;;;;;;4971560;28;20590;-76
2021/01/21 07:18:36;;;;;;;3.53;0.90;;;10.50;41.60;;;;;;4972287;28;20503;-77
2021/01/21 07:21:08;;;;;;;4.43;1.00;;;10.60;43.20;;;;;;4969726;28;20125;-77
2021/01/21 07:23:53;;;;;;;18.77;0.80;;;10.60;45.00;;;;;;4973610;28;20046;-78
2021/01/21 07:26:39;;;;;;;2.10;0.98;;;10.40;47.00;;;;;;4972230;28;20070;-77
2021/01/21 07:29:08;;;;;;;1.42;0.60;;;10.50;49.40;;;;;;4973425;28;20053;-77
2021/01/21 07:31:52;;;;;;;3.53;1.08;;;10.50;50.40;;;;;;4973301;28;20046;-76
2021/01/21 07:34:24;;;;;;;2.72;0.85;;;10.50;51.50;;;;;;4973438;28;20053;-77
2021/01/21 07:37:18;;;;;;;8.15;0.88;;;10.50;53.10;;;;;;4971939;28;20047;-77
2021/01/21 07:40:03;;;;;;;2.58;0.60;;;10.50;52.90;;;;;;4970011;28;20531;-77
2021/01/21 07:42:37;;;;;;;5.65;0.70;;;10.50;54.00;;;;;;4988059;28;20039;-77
2021/01/21 07:45:13;;;;;;;1.88;0.80;;;10.50;55.00;;;;;;4971165;28;20042;-77
2021/01/21 07:47:40;;;;;;;4.88;0.60;;;10.60;54.50;;;;;;4985287;28;20030;-76
2021/01/21 07:50:33;;;;;;;1.27;0.50;;;10.60;54.80;;;;;;4972813;28;20034;-78
2021/01/21 07:53:00;;;;;;;2.58;0.60;;;10.80;54.60;;;;;;4976178;28;20423;-76
2021/01/21 07:55:31;;;;;;;1.98;0.52;;;10.80;55.00;;;;;;4973498;28;20042;-78
2021/01/21 07:58:21;;;;;;;2.13;0.70;;;10.80;54.50;;;;;;4971044;28;20038;-78
2021/01/21 08:01:02;;;;;;;3.70;0.65;;;10.90;54.70;;;;;;4975174;28;20121;-78
2021/01/21 08:03:35;;;;;;;5.20;1.02;;;10.80;54.50;;;;;;4979141;28;20065;-78
2021/01/21 08:06:11;;;;;;;1.13;0.70;;;10.80;55.40;;;;;;4973676;28;20110;-79
2021/01/21 08:08:38;;;;;;;4.38;0.52;;;10.90;54.60;;;;;;4981488;28;20038;-79
2021/01/21 08:11:05;;;;;;;3.08;0.70;;;11.00;54.50;;;;;;4971070;28;20034;-79
2021/01/21 08:13:31;;;;;;;0.75;0.43;;;11.00;54.20;;;;;;4968976;28;20485;-79
2021/01/21 08:15:57;;;;;;;3.75;0.80;;;11.00;54.50;;;;;;4968439;28;20046;-79
2021/01/21 08:18:23;;;;;;;2.70;0.77;;;11.10;54.00;;;;;;4967617;28;20548;-76
2021/01/21 08:20:49;;;;;;;2.20;0.60;;;11.00;54.80;;;;;;4966756;28;20035;-77
2021/01/21 08:23:16;;;;;;;2.30;0.65;;;11.10;54.40;;;;;;4968976;28;20065;-77
2021/01/21 08:25:49;;;;;;;1.25;0.77;;;11.10;53.70;;;;;;4970246;28;20118;-77
2021/01/21 08:28:20;;;;;;;1.83;0.60;;;11.20;54.00;;;;;;4984845;28;20030;-78
2021/01/21 08:30:48;;;;;;;2.47;0.57;;;11.20;53.80;;;;;;4965627;28;20038;-77
2021/01/21 08:33:22;;;;;;;4.75;0.60;;;11.30;53.80;;;;;;4972697;28;20633;-77
2021/01/21 08:35:55;;;;;;;1.60;0.50;;;11.20;54.30;;;;;;4985408;28;20037;-76
2021/01/21 08:38:24;;;;;;;12.73;0.50;;;11.30;54.30;;;;;;4970378;28;20039;-76
2021/01/21 08:40:52;;;;;;;1.85;0.63;;;11.20;54.70;;;;;;4977729;28;20066;-75
2021/01/21 08:43:19;;;;;;;2.33;0.65;;;11.30;55.10;;;;;;4989270;28;20129;-79
2021/01/21 08:45:45;;;;;;;1.08;0.52;;;11.30;54.80;;;;;;4970498;28;20500;-77
2021/01/21 08:48:22;;;;;;;2.08;0.77;;;11.40;55.20;;;;;;4974441;28;20065;-78
2021/01/21 08:50:48;;;;;;;1.52;0.50;;;11.40;56.00;;;;;;4974960;28;20533;-78
2021/01/21 08:53:23;;;;;;;1.35;0.65;;;11.40;55.70;;;;;;4990934;28;20047;-79
2021/01/21 08:55:51;;;;;;;1.77;0.90;;;11.40;55.90;;;;;;4974594;28;20030;-78
2021/01/21 08:58:17;;;;;;;3.03;0.60;;;11.30;56.40;;;;;;4974533;28;20471;-79
2021/01/21 09:01:03;;;;;;;3.75;0.50;;;11.40;56.00;;;;;;4973849;28;20040;-77
2021/01/21 09:03:40;;;;;;;0.77;0.50;;;11.30;56.10;;;;;;4972498;28;20100;-77
2021/01/21 09:06:06;;;;;;;2.75;1.17;;;11.40;56.10;;;;;;4973959;28;20038;-78
2021/01/21 09:08:33;;;;;;;1.02;0.57;;;11.40;56.20;;;;;;4975192;28;20035;-77
2021/01/21 09:10:59;;;;;;;4.97;1.90;;;11.40;55.30;;;;;;4972821;28;20108;-79
2021/01/21 09:13:25;;;;;;;4.95;0.95;;;11.40;56.00;;;;;;4975936;28;20096;-78
2021/01/21 09:15:58;;;;;;;2.47;0.50;;;11.30;56.10;;;;;;4987936;28;20043;-77
2021/01/21 09:18:26;;;;;;;1.67;0.80;;;11.40;55.90;;;;;;4976116;28;20046;-78
2021/01/21 09:21:13;;;;;;;1.58;0.70;;;11.50;55.60;;;;;;4989614;28;20034;-78
2021/01/21 09:23:39;;;;;;;1.33;0.70;;;11.70;55.00;;;;;;4974577;28;20066;-78
2021/01/21 09:26:15;;;;;;;1.92;0.65;;;11.80;54.70;;;;;;4974484;28;20124;-80
2021/01/21 09:28:57;;;;;;;2.78;0.70;;;11.80;54.40;;;;;;4973511;28;20034;-78
2021/01/21 09:31:32;;;;;;;2.70;0.70;;;11.80;54.90;;;;;;4970728;28;20046;-77
2021/01/21 09:33:59;;;;;;;3.63;0.90;;;11.90;54.90;;;;;;4971746;28;20038;-77
2021/01/21 09:36:29;;;;;;;2.38;0.70;;;11.80;55.10;;;;;;4971508;28;20992;-77
2021/01/21 09:38:56;;;;;;;1.80;0.68;;;11.70;55.10;;;;;;4969328;28;20082;-78
2021/01/21 09:41:22;;;;;;;1.25;0.55;;;11.70;55.60;;;;;;4969728;28;20046;-77
2021/01/21 09:43:47;;;;;;;3.05;0.82;;;11.70;55.30;;;;;;4968754;28;20057;-77
2021/01/21 09:46:13;;;;;;;3.35;0.82;;;11.80;55.60;;;;;;4970525;28;20038;-78
2021/01/21 09:48:38;;;;;;;3.15;0.60;;;11.80;55.60;;;;;;4965420;28;20090;-77
2021/01/21 09:51:04;;;;;;;1.30;0.50;;;11.80;55.90;;;;;;4970912;28;20471;-78
2021/01/21 09:53:30;;;;;;;4.10;1.42;;;11.90;55.80;;;;;;4967482;28;20113;-79
2021/01/21 09:55:56;;;;;;;3.22;0.75;;;11.90;56.10;;;;;;4968554;28;20050;-78
2021/01/21 09:58:25;;;;;;;4.18;0.93;;;11.80;56.40;;;;;;4987766;28;20034;-77
2021/01/21 10:00:51;;;;;;;2.70;0.65;;;12.00;56.60;;;;;;4970202;28;20065;-77
2021/01/21 10:03:17;;;;;;;1.25;0.75;;;12.00;56.70;;;;;;4975502;28;20070;-76
2021/01/21 10:05:43;;;;;;;9.35;0.93;;;12.00;56.80;;;;;;4951902;28;20038;-77
2021/01/21 10:08:09;;;;;;;2.47;0.80;;;12.00;56.60;;;;;;4957761;28;20110;-77
2021/01/21 10:10:34;;;;;;;4.78;0.77;;;12.20;56.10;;;;;;4960125;28;20039;-77
2021/01/21 10:13:00;;;;;;;2.83;0.38;;;12.20;56.30;;;;;;4957954;28;20049;-77
2021/01/21 10:15:25;;;;;;;3.00;0.80;;;12.30;56.00;;;;;;4951891;28;20039;-77
2021/01/21 10:17:51;;;;;;;3.20;0.70;;;12.30;55.60;;;;;;4952431;28;20049;-80
2021/01/21 10:20:17;;;;;;;7.15;0.70;;;12.40;55.60;;;;;;4952396;28;20090;-76
2021/01/21 10:22:42;;;;;;;1.88;0.90;;;12.40;55.50;;;;;;4954209;28;20114;-77
2021/01/21 10:25:08;;;;;;;1.17;0.70;;;12.40;55.80;;;;;;4951807;28;20038;-77
2021/01/21 10:27:34;;;;;;;0.88;0.50;;;12.50;55.80;;;;;;4953704;28;20127;-76
2021/01/21 10:29:59;;;;;;;3.13;1.17;;;12.60;55.20;;;;;;4954693;28;20640;-77
2021/01/21 10:32:25;;;;;;;1.02;0.70;;;12.80;54.80;;;;;;4953608;28;20651;-78
2021/01/21 10:34:51;;;;;;;2.60;0.77;;;13.10;54.30;;;;;;4968280;28;20042;-78
2021/01/21 10:37:16;;;;;;;1.95;0.90;;;13.30;53.60;;;;;;4954549;28;20568;-78
2021/01/21 10:39:42;;;;;;;6.78;0.73;;;13.40;54.20;;;;;;4951103;28;20763;-78
2021/01/21 10:42:07;;;;;;;3.28;0.60;;;13.50;54.60;;;;;;4950760;28;20770;-79
2021/01/21 10:44:33;;;;;;;2.38;0.70;;;13.50;53.60;;;;;;4949407;28;20034;-78
2021/01/21 10:46:58;;;;;;;1.88;0.88;;;13.40;54.20;;;;;;4967182;28;20054;-79
2021/01/21 10:49:24;;;;;;;2.60;0.70;;;13.40;54.40;;;;;;4948899;28;20412;-78
2021/01/21 10:51:49;;;;;;;1.58;0.50;;;13.20;54.10;;;;;;4947197;28;20043;-77
2021/01/21 10:54:15;;;;;;;0.90;0.47;;;13.10;53.90;;;;;;4948949;28;20043;-77
2021/01/21 10:56:41;;;;;;;1.50;0.38;;;13.00;55.00;;;;;;4949526;28;20059;-76
2021/01/21 10:59:06;;;;;;;2.00;0.73;;;12.90;56.50;;;;;;4960877;28;20042;-77
2021/01/21 11:01:33;;;;;;;2.63;0.82;;;12.90;57.50;;;;;;4947608;28;20050;-76
2021/01/21 11:03:59;;;;;;;0.55;0.38;;;12.90;57.90;;;;;;4958894;28;20073;-76
2021/01/21 11:06:24;;;;;;;1.95;0.73;;;12.90;57.10;;;;;;4948238;28;20393;-77
2021/01/21 11:08:50;;;;;;;2.03;0.57;;;12.80;57.90;;;;;;4946067;28;20416;-78
2021/01/21 11:11:16;;;;;;;2.45;0.40;;;12.90;57.70;;;;;;4953983;28;20669;-77
2021/01/21 11:13:41;;;;;;;0.85;0.40;;;13.10;58.60;;;;;;4954674;28;20043;-76
2021/01/21 11:16:08;;;;;;;1.58;0.77;;;13.10;58.00;;;;;;4953098;28;20042;-77
2021/01/21 11:18:34;;;;;;;2.83;0.60;;;12.90;58.90;;;;;;4949512;28;20035;-77
2021/01/21 11:20:59;;;;;;;1.98;1.08;;;13.00;58.60;;;;;;4948952;28;20793;-78
2021/01/21 11:23:25;;;;;;;2.85;0.63;;;12.90;58.10;;;;;;4949484;28;20693;-77
2021/01/21 11:25:51;;;;;;;8.07;1.02;;;12.90;58.30;;;;;;4951182;28;20042;-78
2021/01/21 11:28:20;;;;;;;1.60;0.60;;;12.80;58.10;;;;;;4956032;28;20074;-78
2021/01/21 11:30:47;;;;;;;2.50;0.80;;;12.80;58.50;;;;;;4957408;28;20035;-77
2021/01/21 11:33:13;;;;;;;3.28;0.80;;;12.90;58.30;;;;;;4958896;28;20967;-76
2021/01/21 11:35:40;;;;;;;1.58;0.90;;;13.10;58.10;;;;;;4971780;28;20032;-78
2021/01/21 11:38:05;;;;;;;3.13;0.70;;;13.30;59.30;;;;;;4956807;28;20030;-79
2021/01/21 11:40:31;;;;;;;2.72;0.70;;;13.10;59.10;;;;;;4958102;28;20038;-79
2021/01/21 11:42:57;;;;;;;1.20;0.70;;;13.00;58.00;;;;;;4955740;28;20640;-77
2021/01/21 11:45:22;;;;;;;6.40;0.80;;;12.90;58.40;;;;;;4957119;28;20134;-77
2021/01/21 11:47:48;;;;;;;7.13;1.08;;;13.00;58.10;;;;;;4956248;28;20035;-78
2021/01/21 11:50:16;;;;;;;1.73;0.88;;;13.20;58.30;;;;;;4954753;28;20035;-79
2021/01/21 11:52:42;;;;;;;3.65;0.70;;;13.20;57.80;;;;;;4952699;28;20039;-79
2021/01/21 11:55:09;;;;;;;3.97;1.08;;;13.20;57.00;;;;;;4953491;28;20508;-78
2021/01/21 11:57:35;;;;;;;1.88;0.88;;;13.20;56.80;;;;;;4953504;28;21437;-78
2021/01/21 12:00:03;;;;;;;4.20;1.85;;;13.10;56.20;;;;;;4950005;28;20064;-79
2021/01/21 12:02:28;;;;;;;8.07;1.15;;;13.10;56.50;;;;;;4950381;28;20066;-77
2021/01/21 12:04:54;;;;;;;3.38;1.10;;;13.10;56.30;;;;;;4955636;28;20623;-78
2021/01/21 12:07:19;;;;;;;3.05;1.10;;;13.20;56.60;;;;;;4949806;28;20647;-78
2021/01/21 12:09:45;;;;;;;3.08;0.77;;;13.20;55.60;;;;;;4947197;28;20035;-78
2021/01/21 12:12:10;;;;;;;5.05;0.85;;;13.30;55.20;;;;;;4950463;28;20106;-76
2021/01/21 12:14:36;;;;;;;3.08;0.95;;;13.40;55.40;;;;;;4950877;28;20085;-78
2021/01/21 12:17:02;;;;;;;9.57;1.40;;;13.40;54.70;;;;;;4953043;28;20054;-79
2021/01/21 12:19:28;;;;;;;7.70;1.10;;;13.40;54.50;;;;;;4958011;28;20043;-79
2021/01/21 12:21:54;;;;;;;3.42;1.13;;;13.40;54.00;;;;;;4969947;28;20046;-78
2021/01/21 12:24:19;;;;;;;6.13;1.20;;;13.40;54.10;;;;;;4952178;28;20444;-79
2021/01/21 12:26:45;;;;;;;2.08;0.90;;;13.30;53.90;;;;;;4956762;28;20134;-78
2021/01/21 12:29:10;;;;;;;6.30;1.52;;;13.40;53.90;;;;;;4955838;28;20054;-77
2021/01/21 12:31:36;;;;;;;3.28;1.10;;;13.30;54.10;;;;;;4969206;28;20528;-78
2021/01/21 12:34:01;;;;;;;2.78;0.93;;;13.30;54.00;;;;;;4953630;28;20055;-79
2021/01/21 12:36:31;;;;;;;2.00;0.98;;;13.50;54.40;;;;;;4952242;28;20879;-81
2021/01/21 12:38:58;;;;;;;6.60;0.98;;;13.40;53.90;;;;;;4956390;28;20035;-79
2021/01/21 12:41:23;;;;;;;1.52;0.80;;;13.50;53.90;;;;;;4956943;28;20062;-79
2021/01/21 12:43:49;;;;;;;4.45;1.05;;;13.40;54.50;;;;;;4953058;28;20066;-78
2021/01/21 12:46:14;;;;;;;2.33;0.80;;;13.40;54.90;;;;;;4957477;28;20713;-79
2021/01/21 12:48:40;;;;;;;3.38;1.00;;;13.30;54.90;;;;;;4954963;28;20054;-78
2021/01/21 12:51:05;;;;;;;2.42;0.80;;;13.30;55.80;;;;;;4955942;28;20076;-78
2021/01/21 12:53:31;;;;;;;5.03;1.25;;;13.10;55.60;;;;;;4955922;28;20444;-77
2021/01/21 12:55:57;;;;;;;2.78;0.88;;;13.10;56.00;;;;;;4949739;28;20043;-79
2021/01/21 12:58:22;;;;;;;2.20;1.00;;;13.10;57.10;;;;;;4953130;28;20034;-79